sensor_id;sensor_type;location;lat;lon;timestamp;P1;durP1;ratioP1;P2;durP2;ratioP2
57718;SDS011;43561;50.090;18.522;2022-10-17T00:07:55;30.45;;;18.73;;
57718;SDS011;43561;50.090;18.522;2022-10-17T00:18:09;37.33;;;21.10;;
57718;SDS011;43561;50.090;18.522;2022-10-17T00:28:12;24.58;;;16.20;;
57718;SDS011;43561;50.090;18.522;2022-10-17T00:38:15;32.92;;;19.23;;
57718;SDS011;43561;50.090;18.522;2022-10-17T00:48:23;33.95;;;16.10;;
57718;SDS011;43561;50.090;18.522;2022-10-17T00:58:28;32.33;;;19.03;;
57718;SDS011;43561;50.090;18.522;2022-10-17T01:08:35;27.45;;;15.98;;
57718;SDS011;43561;50.090;18.522;2022-10-17T01:40:35;29.00;;;13.95;;
57718;SDS011;43561;50.090;18.522;2022-10-17T01:50:45;24.35;;;15.20;;
57718;SDS011;43561;50.090;18.522;2022-10-17T02:00:53;30.98;;;17.30;;
57718;SDS011;43561;50.090;18.522;2022-10-17T02:11:03;27.50;;;17.83;;
57718;SDS011;43561;50.090;18.522;2022-10-17T02:21:18;26.67;;;15.95;;
57718;SDS011;43561;50.090;18.522;2022-10-17T02:31:24;27.35;;;17.52;;
57718;SDS011;43561;50.090;18.522;2022-10-17T02:41:37;27.08;;;15.30;;
57718;SDS011;43561;50.090;18.522;2022-10-17T02:51:42;28.83;;;18.33;;
57718;SDS011;43561;50.090;18.522;2022-10-17T03:01:49;34.15;;;17.30;;
57718;SDS011;43561;50.090;18.522;2022-10-17T03:11:52;33.88;;;17.02;;
57718;SDS011;43561;50.090;18.522;2022-10-17T03:21:55;24.58;;;19.13;;
57718;SDS011;43561;50.090;18.522;2022-10-17T03:31:57;27.73;;;16.73;;
57718;SDS011;43561;50.090;18.522;2022-10-17T03:41:59;32.40;;;16.58;;
57718;SDS011;43561;50.090;18.522;2022-10-17T03:52:01;37.28;;;18.00;;
57718;SDS011;43561;50.090;18.522;2022-10-17T04:02:07;30.23;;;17.80;;
57718;SDS011;43561;50.090;18.522;2022-10-17T04:23:13;27.92;;;17.92;;
57718;SDS011;43561;50.090;18.522;2022-10-17T04:33:16;34.53;;;18.08;;
57718;SDS011;43561;50.090;18.522;2022-10-17T04:43:18;30.45;;;15.35;;
57718;SDS011;43561;50.090;18.522;2022-10-17T04:53:20;33.05;;;16.27;;
57718;SDS011;43561;50.090;18.522;2022-10-17T05:03:23;30.38;;;16.13;;
57718;SDS011;43561;50.090;18.522;2022-10-17T05:13:25;35.13;;;16.17;;
57718;SDS011;43561;50.090;18.522;2022-10-17T05:23:28;33.83;;;14.90;;
57718;SDS011;43561;50.090;18.522;2022-10-17T05:33:32;26.65;;;16.17;;
57718;SDS011;43561;50.090;18.522;2022-10-17T05:55:22;23.20;;;15.02;;
57718;SDS011;43561;50.090;18.522;2022-10-17T06:05:25;31.10;;;17.48;;
57718;SDS011;43561;50.090;18.522;2022-10-17T06:15:29;29.13;;;17.23;;
57718;SDS011;43561;50.090;18.522;2022-10-17T06:25:37;30.55;;;16.35;;
57718;SDS011;43561;50.090;18.522;2022-10-17T06:35:40;25.25;;;16.17;;
57718;SDS011;43561;50.090;18.522;2022-10-17T06:45:44;24.40;;;16.02;;
57718;SDS011;43561;50.090;18.522;2022-10-17T07:07:42;29.90;;;16.42;;
57718;SDS011;43561;50.090;18.522;2022-10-17T07:17:48;19.50;;;12.33;;
57718;SDS011;43561;50.090;18.522;2022-10-17T07:27:54;19.13;;;12.93;;
57718;SDS011;43561;50.090;18.522;2022-10-17T07:37:56;22.80;;;13.57;;
57718;SDS011;43561;50.090;18.522;2022-10-17T07:47:58;19.48;;;14.43;;
57718;SDS011;43561;50.090;18.522;2022-10-17T07:58:00;23.25;;;13.48;;
57718;SDS011;43561;50.090;18.522;2022-10-17T08:08:05;18.35;;;11.23;;
57718;SDS011;43561;50.090;18.522;2022-10-17T08:18:07;19.35;;;10.68;;
57718;SDS011;43561;50.090;18.522;2022-10-17T08:28:09;15.88;;;9.75;;
57718;SDS011;43561;50.090;18.522;2022-10-17T08:38:11;14.20;;;8.68;;
57718;SDS011;43561;50.090;18.522;2022-10-17T08:48:17;14.55;;;10.15;;
57718;SDS011;43561;50.090;18.522;2022-10-17T08:58:31;16.30;;;10.73;;
57718;SDS011;43561;50.090;18.522;2022-10-17T09:08:44;13.73;;;8.90;;
57718;SDS011;43561;50.090;18.522;2022-10-17T09:18:57;17.67;;;9.60;;
57718;SDS011;43561;50.090;18.522;2022-10-17T09:29:14;12.82;;;10.05;;
57718;SDS011;43561;50.090;18.522;2022-10-17T09:39:21;17.38;;;9.85;;
57718;SDS011;43561;50.090;18.522;2022-10-17T09:49:31;19.55;;;13.05;;
57718;SDS011;43561;50.090;18.522;2022-10-17T09:59:39;15.43;;;9.43;;
57718;SDS011;43561;50.090;18.522;2022-10-17T10:09:44;13.88;;;9.82;;
57718;SDS011;43561;50.090;18.522;2022-10-17T10:19:49;14.85;;;9.98;;
57718;SDS011;43561;50.090;18.522;2022-10-17T10:29:51;12.98;;;8.32;;
57718;SDS011;43561;50.090;18.522;2022-10-17T10:40:00;13.73;;;6.88;;
57718;SDS011;43561;50.090;18.522;2022-10-17T10:50:21;10.75;;;8.70;;
57718;SDS011;43561;50.090;18.522;2022-10-17T11:00:45;16.88;;;8.38;;
57718;SDS011;43561;50.090;18.522;2022-10-17T11:21:38;12.88;;;8.07;;
57718;SDS011;43561;50.090;18.522;2022-10-17T11:32:04;19.38;;;8.75;;
57718;SDS011;43561;50.090;18.522;2022-10-17T11:52:40;13.35;;;9.20;;
57718;SDS011;43561;50.090;18.522;2022-10-17T12:23:51;15.65;;;8.23;;
57718;SDS011;43561;50.090;18.522;2022-10-17T12:33:55;14.10;;;9.80;;
57718;SDS011;43561;50.090;18.522;2022-10-17T12:43:59;10.65;;;7.40;;
57718;SDS011;43561;50.090;18.522;2022-10-17T12:54:01;12.80;;;8.63;;
57718;SDS011;43561;50.090;18.522;2022-10-17T13:04:14;14.75;;;9.40;;
57718;SDS011;43561;50.090;18.522;2022-10-17T13:14:18;19.33;;;8.95;;
57718;SDS011;43561;50.090;18.522;2022-10-17T13:24:35;15.70;;;9.55;;
57718;SDS011;43561;50.090;18.522;2022-10-17T13:35:03;18.17;;;8.05;;
57718;SDS011;43561;50.090;18.522;2022-10-17T13:55:31;11.40;;;6.25;;
57718;SDS011;43561;50.090;18.522;2022-10-17T14:05:33;6.18;;;4.72;;
57718;SDS011;43561;50.090;18.522;2022-10-17T14:15:35;16.35;;;6.90;;
57718;SDS011;43561;50.090;18.522;2022-10-17T14:25:39;14.35;;;8.05;;
57718;SDS011;43561;50.090;18.522;2022-10-17T14:35:52;10.80;;;6.68;;
57718;SDS011;43561;50.090;18.522;2022-10-17T14:45:56;15.20;;;7.25;;
57718;SDS011;43561;50.090;18.522;2022-10-17T14:56:00;14.38;;;7.40;;
57718;SDS011;43561;50.090;18.522;2022-10-17T15:06:25;10.30;;;7.03;;
57718;SDS011;43561;50.090;18.522;2022-10-17T15:16:32;13.10;;;8.45;;
57718;SDS011;43561;50.090;18.522;2022-10-17T15:26:35;15.52;;;6.57;;
57718;SDS011;43561;50.090;18.522;2022-10-17T15:36:38;20.80;;;13.90;;
57718;SDS011;43561;50.090;18.522;2022-10-17T15:46:41;11.23;;;7.60;;
57718;SDS011;43561;50.090;18.522;2022-10-17T15:56:50;13.63;;;8.05;;
57718;SDS011;43561;50.090;18.522;2022-10-17T16:06:54;14.27;;;8.80;;
57718;SDS011;43561;50.090;18.522;2022-10-17T16:17:00;18.73;;;10.40;;
57718;SDS011;43561;50.090;18.522;2022-10-17T16:27:02;18.10;;;11.50;;
57718;SDS011;43561;50.090;18.522;2022-10-17T16:37:04;27.92;;;21.38;;
57718;SDS011;43561;50.090;18.522;2022-10-17T16:47:06;53.47;;;30.10;;
57718;SDS011;43561;50.090;18.522;2022-10-17T16:57:08;54.80;;;30.08;;
57718;SDS011;43561;50.090;18.522;2022-10-17T17:07:10;28.67;;;18.50;;
57718;SDS011;43561;50.090;18.522;2022-10-17T17:17:12;40.88;;;19.67;;
57718;SDS011;43561;50.090;18.522;2022-10-17T17:27:34;49.60;;;21.25;;
57718;SDS011;43561;50.090;18.522;2022-10-17T17:37:39;34.53;;;19.33;;
57718;SDS011;43561;50.090;18.522;2022-10-17T17:47:41;42.75;;;22.63;;
57718;SDS011;43561;50.090;18.522;2022-10-17T17:57:43;36.17;;;22.13;;
57718;SDS011;43561;50.090;18.522;2022-10-17T18:07:45;42.65;;;19.95;;
57718;SDS011;43561;50.090;18.522;2022-10-17T18:17:47;45.22;;;21.65;;
57718;SDS011;43561;50.090;18.522;2022-10-17T18:27:54;38.78;;;23.88;;
57718;SDS011;43561;50.090;18.522;2022-10-17T18:37:59;56.30;;;33.20;;
57718;SDS011;43561;50.090;18.522;2022-10-17T18:48:06;57.03;;;29.55;;
57718;SDS011;43561;50.090;18.522;2022-10-17T18:58:08;50.75;;;25.67;;
57718;SDS011;43561;50.090;18.522;2022-10-17T19:08:11;55.95;;;30.60;;
57718;SDS011;43561;50.090;18.522;2022-10-17T19:18:22;47.90;;;24.10;;
57718;SDS011;43561;50.090;18.522;2022-10-17T19:28:24;47.08;;;19.50;;
57718;SDS011;43561;50.090;18.522;2022-10-17T19:38:32;44.78;;;18.98;;
57718;SDS011;43561;50.090;18.522;2022-10-17T19:48:35;37.15;;;16.58;;
57718;SDS011;43561;50.090;18.522;2022-10-17T19:58:38;28.92;;;16.73;;
57718;SDS011;43561;50.090;18.522;2022-10-17T20:08:40;36.17;;;17.08;;
57718;SDS011;43561;50.090;18.522;2022-10-17T20:18:53;34.13;;;17.42;;
57718;SDS011;43561;50.090;18.522;2022-10-17T20:29:01;37.63;;;22.70;;
57718;SDS011;43561;50.090;18.522;2022-10-17T20:39:12;35.53;;;20.30;;
57718;SDS011;43561;50.090;18.522;2022-10-17T20:49:16;34.13;;;21.25;;
57718;SDS011;43561;50.090;18.522;2022-10-17T20:59:20;23.92;;;14.80;;
57718;SDS011;43561;50.090;18.522;2022-10-17T21:09:22;33.50;;;19.73;;
57718;SDS011;43561;50.090;18.522;2022-10-17T21:19:24;36.17;;;17.40;;
57718;SDS011;43561;50.090;18.522;2022-10-17T21:29:27;28.13;;;15.05;;
57718;SDS011;43561;50.090;18.522;2022-10-17T21:39:42;23.55;;;16.25;;
57718;SDS011;43561;50.090;18.522;2022-10-17T21:49:43;27.08;;;15.10;;
57718;SDS011;43561;50.090;18.522;2022-10-17T21:59:47;32.08;;;14.88;;
57718;SDS011;43561;50.090;18.522;2022-10-17T22:09:49;26.55;;;14.48;;
57718;SDS011;43561;50.090;18.522;2022-10-17T22:19:50;33.00;;;15.30;;
57718;SDS011;43561;50.090;18.522;2022-10-17T22:29:52;34.42;;;17.05;;
57718;SDS011;43561;50.090;18.522;2022-10-17T22:39:54;26.17;;;12.77;;
57718;SDS011;43561;50.090;18.522;2022-10-17T22:49:56;32.05;;;17.45;;
57718;SDS011;43561;50.090;18.522;2022-10-17T22:59:58;27.45;;;13.80;;
57718;SDS011;43561;50.090;18.522;2022-10-17T23:10:00;31.45;;;13.63;;
57718;SDS011;43561;50.090;18.522;2022-10-17T23:20:02;21.33;;;14.10;;
57718;SDS011;43561;50.090;18.522;2022-10-17T23:30:05;27.65;;;13.48;;
57718;SDS011;43561;50.090;18.522;2022-10-17T23:40:08;24.27;;;13.95;;
57718;SDS011;43561;50.090;18.522;2022-10-17T23:50:11;24.83;;;11.40;;
